createdAt,value
2022-10-15T00:01:31.231Z,11.00
2022-10-15T00:04:16.171Z,10.00
2022-10-15T00:06:43.099Z,10.75
2022-10-15T00:09:09.897Z,15.50
2022-10-15T00:11:36.714Z,16.00
2022-10-15T00:14:06.232Z,14.00
2022-10-15T00:16:33.254Z,15.00
2022-10-15T00:19:20.323Z,17.00
2022-10-15T00:21:47.300Z,14.00
2022-10-15T00:24:14.121Z,14.00
2022-10-15T00:26:41.021Z,17.00
2022-10-15T00:29:07.969Z,18.00
2022-10-15T00:31:34.939Z,16.00
2022-10-15T00:34:02.145Z,18.50
2022-10-15T00:36:35.549Z,17.00
2022-10-15T00:39:04.649Z,16.00
2022-10-15T00:41:38.181Z,16.00
2022-10-15T00:44:26.959Z,18.00
2022-10-15T00:47:09.759Z,18.00
2022-10-15T00:49:44.615Z,13.25
2022-10-15T00:52:27.011Z,12.00
2022-10-15T00:55:00.922Z,12.00
2022-10-15T00:57:28.195Z,14.25
2022-10-15T01:00:00.784Z,17.75
2022-10-15T01:02:27.831Z,17.00
2022-10-15T01:04:55.822Z,18.00
2022-10-15T01:07:22.892Z,18.00
2022-10-15T01:09:50.708Z,16.00
2022-10-15T01:12:43.088Z,14.00
2022-10-15T01:15:25.619Z,16.00
2022-10-15T01:18:15.851Z,13.00
2022-10-15T01:21:03.633Z,14.25
2022-10-15T01:24:01.004Z,16.00
2022-10-15T01:26:58.901Z,14.00
2022-10-15T01:29:31.806Z,13.00
2022-10-15T01:32:22.272Z,16.00
2022-10-15T01:35:21.616Z,16.00
2022-10-15T01:38:01.553Z,17.00
2022-10-15T01:40:42.018Z,15.00
2022-10-15T01:43:43.568Z,15.75
2022-10-15T01:46:52.684Z,16.00
2022-10-15T01:49:26.720Z,18.00
2022-10-15T01:51:55.923Z,18.00
2022-10-15T01:54:26.640Z,15.00
2022-10-15T01:56:56.160Z,15.00
2022-10-15T01:59:28.092Z,14.50
2022-10-15T02:01:57.870Z,14.00
2022-10-15T02:04:26.887Z,14.00
2022-10-15T02:07:16.567Z,13.00
2022-10-15T02:09:57.226Z,13.00
2022-10-15T02:12:44.711Z,13.00
2022-10-15T02:15:24.500Z,13.00
2022-10-15T02:17:57.506Z,14.00
2022-10-15T02:20:33.927Z,15.00
2022-10-15T02:23:13.378Z,14.50
2022-10-15T02:25:42.171Z,11.75
2022-10-15T02:28:13.158Z,15.50
2022-10-15T02:30:44.327Z,15.00
2022-10-15T02:33:13.340Z,17.25
2022-10-15T02:35:42.918Z,13.00
2022-10-15T02:40:47.462Z,15.00
2022-10-15T02:43:18.940Z,14.00
2022-10-15T02:45:46.332Z,16.00
2022-10-15T02:48:14.631Z,14.00
2022-10-15T02:50:41.799Z,17.00
2022-10-15T02:53:08.718Z,19.00
2022-10-15T02:55:36.217Z,16.00
2022-10-15T02:58:03.065Z,16.00
2022-10-15T03:00:31.418Z,13.00
2022-10-15T03:02:58.301Z,11.00
2022-10-15T03:05:25.395Z,16.75
2022-10-15T03:07:53.052Z,14.00
2022-10-15T03:10:25.473Z,17.75
2022-10-15T03:12:52.301Z,18.50
2022-10-15T03:15:19.652Z,20.00
2022-10-15T03:17:46.856Z,16.00
2022-10-15T03:20:16.426Z,13.75
2022-10-15T03:22:43.373Z,17.00
2022-10-15T03:25:10.616Z,16.25
2022-10-15T03:27:38.153Z,16.50
2022-10-15T03:30:16.004Z,16.00
2022-10-15T03:35:16.461Z,15.00
2022-10-15T03:37:43.320Z,17.25
2022-10-15T03:40:13.648Z,16.50
2022-10-15T03:42:43.254Z,15.00
2022-10-15T03:45:11.438Z,18.00
2022-10-15T03:47:38.594Z,18.50
2022-10-15T03:50:05.826Z,18.50
2022-10-15T03:52:32.704Z,16.75
2022-10-15T03:54:59.990Z,15.00
2022-10-15T03:57:49.768Z,18.00
2022-10-15T04:00:18.439Z,19.00
2022-10-15T04:02:49.643Z,19.00
2022-10-15T04:05:24.696Z,19.00
2022-10-15T04:07:57.241Z,16.00
2022-10-15T04:10:25.893Z,18.50
2022-10-15T04:12:53.052Z,20.00
2022-10-15T04:15:19.984Z,18.00
2022-10-15T04:17:55.121Z,18.50
2022-10-15T04:20:23.798Z,18.50
2022-10-15T04:22:50.734Z,15.50
2022-10-15T04:25:17.974Z,17.00
2022-10-15T04:27:45.166Z,17.00
2022-10-15T04:30:16.080Z,15.00
2022-10-15T04:32:52.224Z,16.25
2022-10-15T04:35:30.469Z,19.00
2022-10-15T04:38:20.506Z,18.00
2022-10-15T04:41:03.598Z,16.00
2022-10-15T04:43:47.724Z,19.50
2022-10-15T04:46:14.771Z,19.00
2022-10-15T04:48:43.203Z,18.00
2022-10-15T04:51:17.418Z,17.00
2022-10-15T04:54:22.715Z,17.00
2022-10-15T04:57:03.952Z,17.00
2022-10-15T04:59:31.507Z,17.75
2022-10-15T05:02:23.276Z,16.00
2022-10-15T05:04:55.741Z,18.50
2022-10-15T05:07:23.108Z,17.00
2022-10-15T05:09:51.372Z,19.00
2022-10-15T05:12:18.368Z,19.00
2022-10-15T05:14:46.232Z,19.00
2022-10-15T05:17:22.496Z,18.00
2022-10-15T05:19:49.815Z,17.00
2022-10-15T05:22:21.058Z,19.00
2022-10-15T05:24:54.309Z,18.00
2022-10-15T05:27:29.581Z,19.00
2022-10-15T05:30:21.829Z,18.00
2022-10-15T05:32:52.991Z,19.00
2022-10-15T05:35:21.759Z,20.00
2022-10-15T05:37:59.340Z,17.50
2022-10-15T05:40:26.419Z,19.00
2022-10-15T05:43:18.794Z,19.00
2022-10-15T05:45:48.367Z,19.50
2022-10-15T05:48:15.155Z,19.00
2022-10-15T05:50:42.931Z,21.00
2022-10-15T05:53:14.866Z,20.00
2022-10-15T05:55:46.382Z,21.00
2022-10-15T05:58:13.172Z,20.00
2022-10-15T06:00:39.975Z,20.00
2022-10-15T06:03:13.860Z,19.00
2022-10-15T06:05:40.820Z,19.00
2022-10-15T06:08:07.862Z,19.50
2022-10-15T06:10:37.855Z,20.50
2022-10-15T06:13:27.678Z,20.00
2022-10-15T06:15:54.767Z,19.00
2022-10-15T06:18:21.554Z,19.00
2022-10-15T06:20:53.023Z,18.00
2022-10-15T06:23:32.350Z,17.00
2022-10-15T06:26:10.183Z,20.00
2022-10-15T06:28:39.047Z,19.00
2022-10-15T06:31:06.681Z,18.00
2022-10-15T06:33:35.706Z,20.00
2022-10-15T06:36:07.529Z,19.00
2022-10-15T06:38:34.842Z,20.00
2022-10-15T06:41:05.214Z,21.00
2022-10-15T06:43:34.836Z,20.00
2022-10-15T06:46:03.791Z,20.00
2022-10-15T06:48:30.627Z,19.00
2022-10-15T06:50:59.333Z,21.00
2022-10-15T06:53:26.323Z,20.00
2022-10-15T06:55:57.380Z,22.00
2022-10-15T06:58:24.461Z,21.00
2022-10-15T07:00:51.735Z,21.00
2022-10-15T07:03:18.712Z,21.00
2022-10-15T07:05:45.515Z,19.50
2022-10-15T07:08:16.810Z,19.00
2022-10-15T07:10:46.623Z,21.00
2022-10-15T07:13:13.404Z,19.00
2022-10-15T07:15:42.435Z,19.00
2022-10-15T07:18:09.435Z,19.00
2022-10-15T07:20:40.100Z,21.00
2022-10-15T07:23:06.953Z,20.00
2022-10-15T07:25:41.917Z,19.00
2022-10-15T07:28:27.756Z,19.00
2022-10-15T07:30:54.678Z,18.00
2022-10-15T07:33:42.872Z,20.00
2022-10-15T07:36:11.924Z,21.00
2022-10-15T07:38:39.476Z,21.00
2022-10-15T07:41:08.242Z,21.00
2022-10-15T07:43:42.280Z,19.00
2022-10-15T07:46:09.205Z,21.00
2022-10-15T07:48:39.261Z,22.00
2022-10-15T07:51:07.344Z,22.00
2022-10-15T07:53:34.779Z,22.00
2022-10-15T07:56:04.445Z,20.50
2022-10-15T07:58:37.780Z,21.00
2022-10-15T08:01:10.423Z,22.00
2022-10-15T08:03:38.373Z,21.00
2022-10-15T08:06:07.718Z,21.00
2022-10-15T08:08:36.463Z,20.00
2022-10-15T08:11:12.418Z,21.00
2022-10-15T08:13:39.888Z,26.00
2022-10-15T08:16:07.460Z,24.00
2022-10-15T08:18:35.446Z,22.00
2022-10-15T08:21:02.584Z,22.00
2022-10-15T08:23:29.416Z,22.00
2022-10-15T08:25:59.100Z,22.00
2022-10-15T08:28:39.074Z,22.00
2022-10-15T08:31:06.440Z,22.00
2022-10-15T08:33:37.807Z,22.00
2022-10-15T08:36:05.865Z,19.50
2022-10-15T08:38:33.394Z,20.00
2022-10-15T08:41:02.774Z,20.00
2022-10-15T08:43:42.770Z,20.00
2022-10-15T08:46:40.942Z,21.00
2022-10-15T08:49:25.065Z,22.00
2022-10-15T08:51:57.076Z,21.50
2022-10-15T08:54:24.006Z,22.25
2022-10-15T08:57:59.802Z,22.00
2022-10-15T09:00:56.018Z,21.00
2022-10-15T09:07:35.408Z,21.00
2022-10-15T09:10:30.907Z,21.00
2022-10-15T09:13:13.946Z,23.00
2022-10-15T09:15:50.950Z,21.00
2022-10-15T09:18:23.078Z,21.00
2022-10-15T09:20:50.205Z,21.00
2022-10-15T09:23:25.800Z,21.75
2022-10-15T09:26:02.308Z,21.00
2022-10-15T09:28:39.276Z,22.00
2022-10-15T09:31:32.666Z,23.00
2022-10-15T09:34:12.738Z,22.00
2022-10-15T09:36:51.380Z,23.00
2022-10-15T09:39:55.794Z,21.50
2022-10-15T09:42:28.019Z,21.50
2022-10-15T09:45:00.308Z,22.50
2022-10-15T09:47:33.695Z,22.00
2022-10-15T09:50:07.097Z,22.75
2022-10-15T09:52:48.530Z,23.50
2022-10-15T09:55:31.083Z,23.00
2022-10-15T09:58:03.818Z,24.00
2022-10-15T10:00:58.421Z,22.25
2022-10-15T10:03:33.376Z,22.00
2022-10-15T10:06:28.492Z,21.00
2022-10-15T10:09:00.018Z,22.00
2022-10-15T10:11:45.973Z,22.00
2022-10-15T10:14:24.186Z,22.00
2022-10-15T10:17:14.862Z,21.00
2022-10-15T10:19:41.904Z,22.00
2022-10-15T10:22:20.217Z,22.00
2022-10-15T10:24:48.331Z,23.00
2022-10-15T10:27:24.694Z,22.25
2022-10-15T10:30:07.660Z,22.00
2022-10-15T10:32:35.847Z,22.00
2022-10-15T10:35:05.534Z,22.00
2022-10-15T10:37:43.002Z,21.00
2022-10-15T10:40:40.240Z,21.00
2022-10-15T10:43:30.009Z,20.00
2022-10-15T10:46:01.701Z,19.00
2022-10-15T10:48:33.114Z,20.25
2022-10-15T10:51:18.232Z,22.75
2022-10-15T10:53:59.226Z,23.50
2022-10-15T10:56:42.460Z,23.00
2022-10-15T10:59:36.215Z,22.50
2022-10-15T11:02:04.312Z,23.00
2022-10-15T11:04:34.337Z,21.50
2022-10-15T11:07:30.543Z,23.50
2022-10-15T11:10:08.440Z,21.00
2022-10-15T11:13:03.554Z,21.75
2022-10-15T11:15:56.514Z,23.00
2022-10-15T11:18:45.123Z,23.00
2022-10-15T11:21:50.037Z,23.00
2022-10-15T11:24:48.562Z,21.50
2022-10-15T11:27:26.628Z,21.00
2022-10-15T11:30:19.516Z,21.00
2022-10-15T11:33:08.863Z,21.00
2022-10-15T11:35:52.305Z,22.00
2022-10-15T11:38:27.943Z,22.00
2022-10-15T11:41:12.944Z,21.00
2022-10-15T11:43:58.339Z,21.00
2022-10-15T11:46:34.857Z,20.00
2022-10-15T11:52:27.604Z,22.00
2022-10-15T11:55:13.115Z,21.00
2022-10-15T11:57:43.451Z,19.00
2022-10-15T12:00:31.508Z,19.00
2022-10-15T12:03:12.416Z,21.25
2022-10-15T12:05:52.247Z,20.00
2022-10-15T12:08:21.129Z,21.00
2022-10-15T12:11:08.172Z,21.00
2022-10-15T12:13:58.437Z,20.00
2022-10-15T12:16:25.759Z,22.75
2022-10-15T12:19:02.952Z,20.00
2022-10-15T12:21:34.656Z,19.00
2022-10-15T12:24:02.859Z,22.00
2022-10-15T12:26:34.733Z,20.00
2022-10-15T12:29:06.199Z,21.50
2022-10-15T12:31:54.516Z,21.00
2022-10-15T12:34:41.026Z,20.00
2022-10-15T12:37:18.908Z,19.00
2022-10-15T12:39:52.707Z,19.00
2022-10-15T12:42:26.368Z,19.00
2022-10-15T12:44:57.742Z,20.75
2022-10-15T12:47:55.581Z,22.00
2022-10-15T12:50:24.046Z,21.00
2022-10-15T12:53:02.931Z,23.00
2022-10-15T12:56:00.390Z,23.00
2022-10-15T12:58:34.893Z,23.00
2022-10-15T13:01:13.858Z,21.25
2022-10-15T13:03:54.300Z,24.00
2022-10-15T13:06:39.427Z,21.00
2022-10-15T13:09:23.905Z,20.00
2022-10-15T13:11:53.526Z,22.00
2022-10-15T13:14:31.843Z,21.00
2022-10-15T13:17:03.501Z,21.00
2022-10-15T13:19:36.804Z,20.50
2022-10-15T13:22:07.283Z,21.00
2022-10-15T13:24:44.569Z,21.00
2022-10-15T13:27:36.252Z,22.75
2022-10-15T13:30:08.189Z,20.00
2022-10-15T13:32:48.235Z,21.00
2022-10-15T13:35:39.015Z,21.00
2022-10-15T13:38:22.640Z,21.00
2022-10-15T13:40:50.998Z,20.00
2022-10-15T13:43:26.989Z,19.00
2022-10-15T13:45:55.893Z,19.00
2022-10-15T13:48:25.255Z,21.00
2022-10-15T13:50:57.982Z,21.00
2022-10-15T13:53:40.457Z,21.00
2022-10-15T13:56:37.008Z,21.00
2022-10-15T13:59:04.515Z,19.00
2022-10-15T14:01:33.346Z,22.25
2022-10-15T14:04:02.963Z,23.00
2022-10-15T14:06:31.331Z,21.00
2022-10-15T14:09:18.462Z,21.00
2022-10-15T14:11:45.897Z,20.75
2022-10-15T14:14:38.799Z,22.00
2022-10-15T14:17:09.498Z,21.00
2022-10-15T14:19:39.900Z,21.00
2022-10-15T14:22:19.022Z,21.00
2022-10-15T14:25:17.857Z,20.00
2022-10-15T14:27:45.954Z,19.50
2022-10-15T14:30:28.006Z,19.00
2022-10-15T14:32:55.696Z,20.00
2022-10-15T14:36:08.317Z,19.00
2022-10-15T14:38:36.466Z,19.00
2022-10-15T14:41:07.412Z,19.50
2022-10-15T14:43:37.401Z,21.75
2022-10-15T14:46:12.777Z,22.50
2022-10-15T14:48:43.508Z,22.00
2022-10-15T14:51:23.179Z,20.00
2022-10-15T14:53:51.191Z,21.00
2022-10-15T14:56:24.466Z,22.25
2022-10-15T14:58:56.173Z,23.25
2022-10-15T15:01:23.803Z,20.00
2022-10-15T15:03:55.340Z,21.00
2022-10-15T15:06:22.584Z,20.00
2022-10-15T15:08:50.076Z,22.00
2022-10-15T15:11:23.312Z,23.00
2022-10-15T15:13:50.558Z,21.50
2022-10-15T15:16:18.632Z,23.00
2022-10-15T15:18:45.563Z,22.50
2022-10-15T15:21:23.717Z,22.00
2022-10-15T15:23:51.038Z,22.00
2022-10-15T15:26:17.816Z,23.00
2022-10-15T15:28:44.708Z,20.00
2022-10-15T15:31:17.566Z,21.00
2022-10-15T15:33:44.701Z,20.00
2022-10-15T15:36:20.566Z,18.00
2022-10-15T15:38:52.071Z,19.00
2022-10-15T15:41:21.315Z,20.00
2022-10-15T15:43:48.997Z,19.00
2022-10-15T15:46:16.747Z,21.00
2022-10-15T15:48:43.974Z,21.00
2022-10-15T15:51:36.800Z,19.00
2022-10-15T15:54:03.933Z,22.00
2022-10-15T15:56:30.798Z,19.50
2022-10-15T15:58:57.744Z,20.00
2022-10-15T16:01:24.605Z,19.50
2022-10-15T16:03:51.554Z,22.00
2022-10-15T16:06:18.368Z,21.00
2022-10-15T16:08:45.415Z,19.00
2022-10-15T16:12:07.497Z,19.00
2022-10-15T16:14:34.432Z,18.00
2022-10-15T16:17:01.299Z,19.00
2022-10-15T16:19:28.551Z,19.00
2022-10-15T16:21:55.378Z,18.75
2022-10-15T16:24:24.927Z,18.00
2022-10-15T16:26:51.790Z,19.00
2022-10-15T16:29:18.731Z,21.50
2022-10-15T16:31:45.665Z,21.00
2022-10-15T16:34:12.752Z,19.00
2022-10-15T16:36:39.616Z,21.75
2022-10-15T16:39:06.528Z,21.75
2022-10-15T16:41:33.787Z,20.00
2022-10-15T16:44:00.737Z,19.00
2022-10-15T16:46:30.461Z,20.00
2022-10-15T16:48:57.408Z,22.00
2022-10-15T16:51:27.703Z,21.00
2022-10-15T16:53:54.765Z,21.00
2022-10-15T16:56:24.951Z,20.00
2022-10-15T16:58:52.147Z,21.00
2022-10-15T17:01:22.694Z,21.00
2022-10-15T17:03:49.664Z,20.00
2022-10-15T17:06:24.822Z,19.00
2022-10-15T17:08:54.173Z,17.00
2022-10-15T17:11:23.905Z,20.00
2022-10-15T17:13:54.625Z,21.00
2022-10-15T17:16:27.422Z,21.00
2022-10-15T17:18:56.104Z,17.00
2022-10-15T17:21:26.193Z,20.50
2022-10-15T17:23:56.793Z,21.00
2022-10-15T17:26:26.323Z,20.00
2022-10-15T17:28:53.984Z,20.00
2022-10-15T17:31:28.560Z,20.50
2022-10-15T17:33:58.269Z,22.00
2022-10-15T17:36:33.507Z,20.00
2022-10-15T17:39:00.808Z,19.00
2022-10-15T17:41:30.117Z,19.00
2022-10-15T17:44:00.481Z,18.00
2022-10-15T17:46:30.514Z,17.00
2022-10-15T17:49:05.464Z,18.00
2022-10-15T17:51:33.648Z,19.00
2022-10-15T17:54:14.261Z,19.00
2022-10-15T17:56:48.876Z,20.00
2022-10-15T17:59:15.825Z,20.00
2022-10-15T18:02:00.722Z,21.00
2022-10-15T18:04:32.253Z,19.00
2022-10-15T18:06:59.254Z,21.50
2022-10-15T18:09:27.294Z,18.00
2022-10-15T18:12:01.670Z,17.00
2022-10-15T18:14:31.730Z,18.25
2022-10-15T18:17:30.726Z,19.00
2022-10-15T18:20:01.280Z,17.50
2022-10-15T18:22:28.674Z,16.00
2022-10-15T18:24:56.120Z,19.25
2022-10-15T18:27:23.980Z,17.00
2022-10-15T18:29:50.958Z,20.50
2022-10-15T18:32:17.833Z,18.25
2022-10-15T18:34:54.912Z,17.00
2022-10-15T18:37:29.273Z,19.75
2022-10-15T18:40:23.860Z,20.00
2022-10-15T18:42:55.142Z,18.50
2022-10-15T18:45:25.498Z,19.00
2022-10-15T18:47:52.489Z,21.00
2022-10-15T18:50:25.674Z,19.00
2022-10-15T18:53:00.060Z,19.75
2022-10-15T18:55:28.830Z,20.75
2022-10-15T18:58:17.700Z,20.00
2022-10-15T19:00:44.572Z,18.25
2022-10-15T19:03:15.266Z,17.00
2022-10-15T19:05:42.515Z,18.50
2022-10-15T19:08:20.645Z,20.00
2022-10-15T19:13:46.213Z,18.00
2022-10-15T19:16:13.322Z,19.00
2022-10-15T19:18:40.604Z,19.00
2022-10-15T19:21:27.809Z,20.00
2022-10-15T19:23:54.969Z,18.50
2022-10-15T19:26:22.082Z,19.00
2022-10-15T19:28:49.110Z,18.00
2022-10-15T19:31:37.211Z,18.25
2022-10-15T19:34:05.276Z,17.00
2022-10-15T19:36:39.689Z,17.00
2022-10-15T19:39:09.537Z,19.00
2022-10-15T19:41:37.804Z,20.00
2022-10-15T19:44:40.928Z,17.75
2022-10-15T19:47:07.826Z,19.50
2022-10-15T19:49:34.741Z,17.25
2022-10-15T19:52:01.648Z,19.00
2022-10-15T19:54:29.150Z,17.00
2022-10-15T19:56:56.109Z,18.75
2022-10-15T19:59:22.932Z,21.75
2022-10-15T20:01:49.877Z,20.00
2022-10-15T20:04:19.277Z,17.50
2022-10-15T20:06:46.396Z,17.00
2022-10-15T20:09:13.167Z,16.00
2022-10-15T20:11:40.067Z,15.00
2022-10-15T20:14:06.915Z,18.75
2022-10-15T20:16:33.932Z,17.00
2022-10-15T20:19:05.674Z,16.00
2022-10-15T20:21:33.278Z,16.00
2022-10-15T20:24:03.039Z,18.25
2022-10-15T20:26:30.631Z,20.00
2022-10-15T20:28:57.451Z,19.00
2022-10-15T20:31:24.359Z,19.50
2022-10-15T20:33:51.140Z,17.00
2022-10-15T20:36:23.465Z,17.50
2022-10-15T20:38:51.759Z,17.00
2022-10-15T20:41:19.739Z,18.00
2022-10-15T20:43:46.909Z,20.00
2022-10-15T20:46:31.035Z,17.50
2022-10-15T20:49:06.121Z,19.00
2022-10-15T20:51:40.439Z,20.00
2022-10-15T20:54:08.872Z,22.00
2022-10-15T20:56:54.567Z,19.00
2022-10-15T20:59:22.626Z,20.00
2022-10-15T21:01:51.167Z,19.00
2022-10-15T21:04:18.152Z,21.50
2022-10-15T21:06:45.801Z,20.00
2022-10-15T21:09:12.967Z,18.00
2022-10-15T21:11:42.031Z,17.00
2022-10-15T21:14:09.371Z,16.00
2022-10-15T21:16:36.593Z,15.00
2022-10-15T21:19:04.036Z,16.00
2022-10-15T21:21:30.914Z,17.00
2022-10-15T21:23:58.222Z,19.25
2022-10-15T21:26:25.389Z,19.50
2022-10-15T21:28:56.986Z,19.25
2022-10-15T21:31:24.656Z,17.00
2022-10-15T21:33:51.952Z,18.75
2022-10-15T21:36:24.248Z,18.00
2022-10-15T21:39:12.747Z,18.00
2022-10-15T21:41:40.083Z,17.00
2022-10-15T21:44:08.013Z,18.75
2022-10-15T21:46:35.280Z,19.00
2022-10-15T21:49:02.595Z,18.00
2022-10-15T21:51:31.892Z,16.00
2022-10-15T21:54:00.670Z,15.00
2022-10-15T21:56:28.022Z,15.00
2022-10-15T21:58:54.850Z,15.00
2022-10-15T22:01:27.705Z,15.00
2022-10-15T22:04:02.012Z,18.00
2022-10-15T22:06:29.835Z,20.00
2022-10-15T22:08:58.754Z,19.00
2022-10-15T22:11:28.543Z,20.00
2022-10-15T22:13:58.033Z,18.00
2022-10-15T22:16:26.607Z,19.00
2022-10-15T22:18:54.780Z,20.00
2022-10-15T22:21:28.613Z,18.50
2022-10-15T22:24:17.367Z,16.00
2022-10-15T22:26:47.183Z,16.00
2022-10-15T22:29:23.468Z,20.00
2022-10-15T22:31:51.407Z,17.00
2022-10-15T22:34:19.568Z,16.00
2022-10-15T22:36:47.272Z,17.00
2022-10-15T22:39:16.305Z,15.75
2022-10-15T22:42:06.340Z,16.00
2022-10-15T22:44:33.384Z,17.75
2022-10-15T22:47:00.350Z,20.00
2022-10-15T22:49:27.321Z,17.75
2022-10-15T22:51:54.172Z,18.75
2022-10-15T22:54:22.681Z,19.00
2022-10-15T22:56:50.874Z,20.00
2022-10-15T22:59:18.223Z,20.00
2022-10-15T23:01:45.131Z,20.00
2022-10-15T23:04:14.036Z,19.00
2022-10-15T23:06:41.362Z,17.00
2022-10-15T23:09:10.881Z,19.00
2022-10-15T23:11:40.161Z,16.00
2022-10-15T23:14:17.372Z,17.75
2022-10-15T23:16:47.290Z,17.00
2022-10-15T23:19:18.285Z,19.00
2022-10-15T23:21:54.094Z,20.00
2022-10-15T23:24:23.435Z,22.00
2022-10-15T23:26:50.443Z,17.75
2022-10-15T23:29:23.818Z,17.75
2022-10-15T23:31:51.265Z,18.00
2022-10-15T23:34:21.346Z,16.00
2022-10-15T23:36:48.785Z,19.00
2022-10-15T23:39:48.016Z,20.25
2022-10-15T23:42:15.799Z,20.00
2022-10-15T23:44:42.644Z,16.00
2022-10-15T23:47:09.776Z,16.00
2022-10-15T23:49:36.670Z,15.00
2022-10-15T23:52:03.931Z,19.00
2022-10-15T23:54:30.810Z,20.00
2022-10-15T23:56:57.790Z,20.75
2022-10-15T23:59:24.548Z,22.00
